KHST/HST METAR and TAF weather

Enter ICAO airport designator
Station Type Date Time Source
KHST METAR 2019/06/20 06:56 UTC NOAA

KHST 200656Z AUTO 00000KT 10SM SCT016 26/25 A3000 RMK AO2 SLP162 T02630250


Station Type Date Time Source
KHST Decoded METAR 2019/06/20 06:56 UTC NOAA

Homestead Air Force Base, FL, United States (KHST) 25-29N 080-23W
Jun 20, 2019 - 02:56 AM EDT / 2019.06.20 0656 UTC
Wind: Calm:0
Visibility: 10 mile(s):0
Sky conditions: partly cloudy
Temperature: 79.3 F (26.3 C)
Dew Point: 77.0 F (25.0 C)
Relative Humidity: 92%
Pressure (altimeter): 30 in. Hg (1015 hPa)
ob: KHST 200656Z AUTO 00000KT 10SM SCT016 26/25 A3000 RMK AO2 SLP162 T02630250
cycle: 7

Station Type Date Time Source
KHST TAF 2019/06/20 00:07 UTC NOAA

TAF KHST 200000Z 2000/2106 VRB03KT 9999 FEW030 SCT250 QNH2999INS
BECMG 2014/2015 17009KT 9999 SCT030 SCT250 QNH3001INS
BECMG 2023/2024 16009KT 9999 SCT030 QNH3003INS TX33/2016Z TN26/2011Z

Example: see airport list